createdAt,value
2023-10-23T00:01:41.775Z,12.40
2023-10-23T00:04:10.772Z,12.60
2023-10-23T00:06:38.376Z,12.60
2023-10-23T00:09:05.615Z,12.90
2023-10-23T00:11:33.263Z,12.90
2023-10-23T00:14:00.828Z,12.60
2023-10-23T00:16:28.117Z,12.50
2023-10-23T00:18:55.823Z,12.80
2023-10-23T00:21:23.229Z,12.80
2023-10-23T00:23:51.327Z,12.90
2023-10-23T00:26:19.699Z,13.00
2023-10-23T00:28:48.602Z,13.00
2023-10-23T00:31:15.864Z,12.90
2023-10-23T00:33:43.206Z,13.10
2023-10-23T00:36:10.571Z,13.30
2023-10-23T00:38:37.776Z,13.10
2023-10-23T00:41:05.039Z,12.70
2023-10-23T00:43:32.307Z,12.40
2023-10-23T00:46:01.237Z,12.40
2023-10-23T00:48:29.124Z,12.60
2023-10-23T00:51:01.387Z,12.50
2023-10-23T00:53:32.887Z,12.50
2023-10-23T00:56:00.487Z,12.50
2023-10-23T00:58:27.735Z,12.40
2023-10-23T01:00:59.035Z,12.40
2023-10-23T01:03:27.418Z,12.40
2023-10-23T01:05:54.731Z,12.30
2023-10-23T01:08:22.129Z,12.20
2023-10-23T01:10:49.422Z,12.20
2023-10-23T01:13:17.006Z,12.30
2023-10-23T01:15:44.319Z,12.40
2023-10-23T01:18:12.715Z,12.60
2023-10-23T01:20:41.502Z,12.70
2023-10-23T01:23:09.390Z,13.10
2023-10-23T01:25:36.592Z,13.00
2023-10-23T01:28:03.984Z,13.00
2023-10-23T01:30:31.469Z,12.80
2023-10-23T01:32:58.950Z,12.50
2023-10-23T01:35:26.549Z,12.60
2023-10-23T01:37:53.797Z,12.50
2023-10-23T01:40:35.280Z,12.20
2023-10-23T01:43:16.318Z,12.20
2023-10-23T01:45:43.601Z,12.40
2023-10-23T01:48:11.746Z,12.70
2023-10-23T01:50:41.574Z,12.90
2023-10-23T01:53:09.111Z,12.80
2023-10-23T01:55:36.799Z,12.50
2023-10-23T01:58:04.079Z,12.50
2023-10-23T02:00:31.889Z,12.30
2023-10-23T02:02:59.689Z,12.20
2023-10-23T02:05:26.978Z,12.00
2023-10-23T02:07:54.206Z,12.10
2023-10-23T02:10:21.403Z,12.00
2023-10-23T02:12:48.641Z,12.10
2023-10-23T02:15:15.935Z,12.20
2023-10-23T02:17:43.169Z,12.50
2023-10-23T02:20:11.062Z,12.50
2023-10-23T02:22:38.306Z,12.20
2023-10-23T02:25:05.864Z,12.20
2023-10-23T02:27:33.308Z,12.30
2023-10-23T02:30:00.650Z,12.50
2023-10-23T02:32:27.993Z,12.10
2023-10-23T02:34:56.256Z,12.10
2023-10-23T02:37:23.574Z,12.00
2023-10-23T02:39:50.838Z,12.10
2023-10-23T02:42:18.098Z,12.30
2023-10-23T02:44:45.904Z,13.00
2023-10-23T02:47:13.187Z,12.80
2023-10-23T02:49:40.662Z,12.90
2023-10-23T02:52:08.866Z,12.80
2023-10-23T02:54:37.296Z,12.40
2023-10-23T02:57:04.845Z,12.80
2023-10-23T02:59:34.867Z,12.70
2023-10-23T03:02:02.129Z,12.30
2023-10-23T03:04:29.419Z,12.20
2023-10-23T03:06:56.729Z,12.20
2023-10-23T03:09:24.506Z,12.20
2023-10-23T03:11:51.791Z,11.70
2023-10-23T03:14:19.019Z,11.90
2023-10-23T03:16:46.335Z,12.00
2023-10-23T03:19:13.683Z,12.00
2023-10-23T03:21:40.911Z,12.00
2023-10-23T03:24:08.672Z,12.00
2023-10-23T03:26:35.914Z,12.20
2023-10-23T03:29:04.505Z,11.80
2023-10-23T03:31:34.029Z,11.70
2023-10-23T03:34:01.494Z,11.90
2023-10-23T03:36:28.772Z,11.60
2023-10-23T03:38:56.449Z,11.90
2023-10-23T03:41:23.654Z,11.90
2023-10-23T03:43:50.952Z,11.60
2023-10-23T03:46:18.286Z,11.70
2023-10-23T03:48:45.632Z,12.00
2023-10-23T03:51:12.872Z,12.00
2023-10-23T03:53:40.137Z,12.10
2023-10-23T03:56:07.480Z,11.70
2023-10-23T03:58:34.713Z,11.80
2023-10-23T04:01:01.993Z,11.40
2023-10-23T04:03:29.413Z,11.90
2023-10-23T04:05:56.652Z,11.90
2023-10-23T04:08:23.876Z,12.00
2023-10-23T04:10:51.316Z,11.80
2023-10-23T04:13:18.594Z,11.90
2023-10-23T04:16:02.115Z,11.90
2023-10-23T04:18:29.482Z,11.80
2023-10-23T04:21:04.363Z,12.40
2023-10-23T04:23:32.356Z,12.40
2023-10-23T04:25:59.695Z,12.40
2023-10-23T04:28:26.941Z,12.50
2023-10-23T04:30:54.227Z,12.60
2023-10-23T04:33:22.767Z,12.70
2023-10-23T04:35:54.542Z,12.70
2023-10-23T04:38:22.203Z,12.90
2023-10-23T04:40:51.291Z,12.80
2023-10-23T04:43:18.674Z,12.90
2023-10-23T04:45:45.937Z,12.70
2023-10-23T04:48:13.780Z,12.60
2023-10-23T04:50:41.239Z,12.50
2023-10-23T04:53:08.658Z,12.50
2023-10-23T04:55:37.312Z,12.50
2023-10-23T04:58:04.821Z,12.60
2023-10-23T05:00:35.041Z,12.50
2023-10-23T05:03:02.606Z,12.40
2023-10-23T05:05:30.586Z,12.30
2023-10-23T05:07:57.975Z,12.30
2023-10-23T05:10:25.173Z,12.30
2023-10-23T05:12:52.440Z,12.40
2023-10-23T05:15:19.680Z,12.60
2023-10-23T05:17:46.989Z,12.50
2023-10-23T05:20:14.284Z,12.40
2023-10-23T05:22:41.605Z,12.40
2023-10-23T05:25:09.636Z,12.40
2023-10-23T05:27:38.275Z,12.50
2023-10-23T05:30:07.995Z,12.60
2023-10-23T05:32:36.064Z,12.40
2023-10-23T05:35:06.816Z,12.60
2023-10-23T05:37:37.448Z,12.70
2023-10-23T05:40:06.036Z,12.80
2023-10-23T05:42:33.528Z,12.60
2023-10-23T05:45:03.907Z,12.50
2023-10-23T05:47:31.239Z,12.60
2023-10-23T05:49:58.579Z,12.60
2023-10-23T05:52:25.767Z,12.60
2023-10-23T05:54:53.024Z,12.60
2023-10-23T05:57:20.266Z,12.50
2023-10-23T05:59:47.510Z,12.40
2023-10-23T06:02:15.798Z,12.60
2023-10-23T06:04:46.409Z,12.50
2023-10-23T06:07:14.033Z,12.50
2023-10-23T06:09:42.229Z,12.70
2023-10-23T06:12:10.580Z,12.80
2023-10-23T06:14:38.225Z,12.90
2023-10-23T06:17:05.747Z,13.10
2023-10-23T06:19:33.287Z,12.90
2023-10-23T06:22:00.742Z,13.00
2023-10-23T06:24:28.598Z,13.20
2023-10-23T06:26:55.859Z,13.10
2023-10-23T06:29:23.059Z,13.10
2023-10-23T06:31:50.339Z,13.40
2023-10-23T06:34:17.639Z,13.40
2023-10-23T06:36:44.966Z,13.40
2023-10-23T06:39:13.997Z,13.60
2023-10-23T06:41:41.500Z,13.50
2023-10-23T06:44:08.758Z,13.20
2023-10-23T06:46:36.025Z,12.90
2023-10-23T06:49:03.285Z,12.80
2023-10-23T06:51:30.491Z,12.70
2023-10-23T06:53:57.755Z,12.60
2023-10-23T06:56:25.929Z,12.40
2023-10-23T06:58:53.170Z,12.60
2023-10-23T07:01:30.057Z,12.70
2023-10-23T07:04:05.680Z,13.60
2023-10-23T07:06:33.039Z,13.60
2023-10-23T07:09:00.890Z,13.60
2023-10-23T07:11:28.261Z,13.20
2023-10-23T07:13:55.569Z,13.40
2023-10-23T07:16:23.162Z,12.70
2023-10-23T07:18:50.644Z,12.80
2023-10-23T07:21:18.083Z,12.80
2023-10-23T07:23:45.633Z,12.70
2023-10-23T07:26:14.021Z,12.90
2023-10-23T07:28:41.784Z,12.80
2023-10-23T07:31:10.096Z,12.80
2023-10-23T07:33:37.458Z,12.80
2023-10-23T07:36:06.240Z,12.60
2023-10-23T07:38:33.664Z,12.60
2023-10-23T07:41:01.575Z,12.70
2023-10-23T07:43:30.176Z,12.60
2023-10-23T07:46:12.068Z,12.80
2023-10-23T07:48:43.606Z,12.80
2023-10-23T07:51:11.198Z,12.50
2023-10-23T07:53:38.415Z,12.60
2023-10-23T07:56:06.077Z,12.40
2023-10-23T07:58:33.487Z,12.70
2023-10-23T08:01:08.422Z,12.60
2023-10-23T08:03:36.602Z,12.70
2023-10-23T08:06:12.164Z,12.80
2023-10-23T08:08:53.925Z,12.00
2023-10-23T08:11:33.303Z,12.50
2023-10-23T08:14:09.291Z,12.70
2023-10-23T08:16:53.758Z,12.80
2023-10-23T08:19:46.788Z,13.40
2023-10-23T08:22:25.077Z,13.60
2023-10-23T08:24:54.222Z,13.80
2023-10-23T08:27:30.030Z,13.80
2023-10-23T08:29:57.228Z,13.60
2023-10-23T08:32:53.285Z,14.00
2023-10-23T08:35:36.508Z,14.10
2023-10-23T08:38:34.529Z,13.40
2023-10-23T08:41:36.095Z,12.60
2023-10-23T08:44:35.443Z,13.30
2023-10-23T08:47:16.247Z,13.60
2023-10-23T08:49:43.645Z,13.60
2023-10-23T08:52:21.096Z,13.40
2023-10-23T08:54:55.836Z,13.20
2023-10-23T08:57:25.425Z,13.20
2023-10-23T09:00:05.236Z,13.40
2023-10-23T09:02:51.930Z,13.30
2023-10-23T09:05:22.014Z,13.50
2023-10-23T09:07:49.477Z,13.80
2023-10-23T09:10:56.500Z,14.10
2023-10-23T09:13:52.521Z,14.40
2023-10-23T09:17:01.317Z,14.10
2023-10-23T09:19:40.313Z,14.40
2023-10-23T09:22:09.116Z,14.30
2023-10-23T09:24:37.656Z,14.20
2023-10-23T09:27:05.177Z,14.30
2023-10-23T09:29:33.936Z,14.10
2023-10-23T09:32:01.581Z,14.10
2023-10-23T09:34:30.417Z,14.70
2023-10-23T09:36:57.812Z,14.50
2023-10-23T09:39:25.471Z,14.00
2023-10-23T09:41:54.058Z,13.90
2023-10-23T09:44:21.649Z,13.50
2023-10-23T09:46:51.376Z,12.20
2023-10-23T09:49:19.380Z,11.80
2023-10-23T09:51:49.947Z,11.40
2023-10-23T09:54:21.064Z,12.20
2023-10-23T09:56:54.746Z,11.50
2023-10-23T09:59:51.604Z,11.60
2023-10-23T10:02:20.174Z,12.30
2023-10-23T10:04:57.474Z,13.00
2023-10-23T10:07:35.149Z,13.10
2023-10-23T10:10:06.420Z,12.70
2023-10-23T10:12:36.606Z,13.30
2023-10-23T10:15:05.088Z,13.50
2023-10-23T10:17:32.758Z,13.80
2023-10-23T10:20:01.297Z,13.40
2023-10-23T10:22:30.654Z,13.50
2023-10-23T10:24:58.557Z,13.80
2023-10-23T10:27:26.419Z,13.40
2023-10-23T10:29:53.679Z,13.20
2023-10-23T10:32:24.902Z,12.90
2023-10-23T10:34:56.682Z,13.00
2023-10-23T10:37:27.848Z,13.60
2023-10-23T10:39:58.283Z,12.80
2023-10-23T10:42:30.453Z,12.10
2023-10-23T10:45:17.817Z,12.60
2023-10-23T10:47:52.699Z,11.90
2023-10-23T10:50:34.129Z,11.90
2023-10-23T10:53:04.889Z,12.50
2023-10-23T10:55:33.516Z,12.80
2023-10-23T10:58:01.172Z,13.50
2023-10-23T11:00:39.708Z,13.60
2023-10-23T11:03:08.185Z,13.10
2023-10-23T11:05:37.374Z,13.60
2023-10-23T11:08:05.019Z,13.60
2023-10-23T11:10:32.321Z,12.50
2023-10-23T11:13:00.531Z,13.40
2023-10-23T11:15:27.782Z,13.70
2023-10-23T11:17:55.198Z,13.90
2023-10-23T11:20:22.463Z,13.10
2023-10-23T11:22:49.694Z,13.80
2023-10-23T11:25:18.852Z,13.90
2023-10-23T11:27:52.159Z,14.00
2023-10-23T11:30:19.538Z,13.60
2023-10-23T11:32:46.947Z,14.10
2023-10-23T11:35:14.292Z,13.90
2023-10-23T11:37:42.714Z,13.90
2023-10-23T11:40:11.915Z,13.90
2023-10-23T11:42:51.015Z,13.90
2023-10-23T11:45:18.688Z,14.00
2023-10-23T11:47:46.697Z,13.90
2023-10-23T11:50:15.102Z,13.80
2023-10-23T11:52:44.756Z,14.20
2023-10-23T11:55:14.259Z,14.50
2023-10-23T11:57:51.470Z,14.20
2023-10-23T12:00:21.087Z,13.90
2023-10-23T12:02:48.512Z,13.80
2023-10-23T12:05:18.360Z,13.80
2023-10-23T12:07:48.363Z,13.80
2023-10-23T12:10:18.120Z,13.80
2023-10-23T12:12:46.146Z,13.80
2023-10-23T12:15:16.965Z,13.80
2023-10-23T12:17:44.538Z,14.00
2023-10-23T12:20:13.496Z,14.30
2023-10-23T12:22:42.748Z,14.40
2023-10-23T12:25:10.681Z,14.70
2023-10-23T12:27:38.629Z,14.70
2023-10-23T12:30:09.380Z,14.80
2023-10-23T12:33:16.426Z,14.70
2023-10-23T12:35:27.719Z,14.90
2023-10-23T12:37:55.019Z,14.80
2023-10-23T12:40:22.342Z,15.10
2023-10-23T12:42:49.648Z,14.90
2023-10-23T12:45:16.987Z,15.20
2023-10-23T12:47:44.404Z,15.40
2023-10-23T12:50:12.095Z,15.30
2023-10-23T12:52:39.764Z,15.40
2023-10-23T12:55:07.426Z,15.40
2023-10-23T12:57:34.664Z,15.70
2023-10-23T13:00:01.987Z,15.60
2023-10-23T13:02:29.279Z,15.70
2023-10-23T13:04:56.631Z,15.90
2023-10-23T13:07:24.019Z,16.20
2023-10-23T13:09:51.392Z,16.20
2023-10-23T13:12:18.634Z,16.40
2023-10-23T13:14:45.844Z,16.40
2023-10-23T13:17:13.270Z,16.50
2023-10-23T13:19:40.822Z,16.50
2023-10-23T13:22:11.948Z,16.70
2023-10-23T13:24:39.295Z,16.70
2023-10-23T13:27:06.496Z,16.90
2023-10-23T13:29:34.070Z,16.70
2023-10-23T13:32:01.792Z,16.80
2023-10-23T13:34:29.298Z,16.80
2023-10-23T13:36:56.973Z,16.80
2023-10-23T13:39:24.242Z,16.80
2023-10-23T13:41:51.724Z,17.30
2023-10-23T13:44:18.926Z,17.70
2023-10-23T13:46:46.491Z,17.70
2023-10-23T13:49:13.941Z,18.00
2023-10-23T13:51:41.195Z,18.10
2023-10-23T13:54:08.444Z,18.30
2023-10-23T13:56:35.716Z,18.60
2023-10-23T13:59:03.633Z,18.30
2023-10-23T14:01:30.979Z,18.70
2023-10-23T14:03:58.387Z,18.70
2023-10-23T14:06:27.731Z,18.50
2023-10-23T14:09:44.085Z,18.30
2023-10-23T14:11:59.782Z,18.50
2023-10-23T14:14:29.664Z,17.60
2023-10-23T14:16:59.496Z,17.30
2023-10-23T14:19:38.746Z,17.80
2023-10-23T14:22:13.850Z,17.60
2023-10-23T14:24:41.455Z,17.30
2023-10-23T14:27:10.220Z,16.40
2023-10-23T14:29:38.040Z,16.90
2023-10-23T14:32:06.399Z,16.50
2023-10-23T14:34:33.839Z,15.90
2023-10-23T14:37:01.284Z,15.60
2023-10-23T14:39:29.268Z,16.10
2023-10-23T14:41:56.765Z,16.00
2023-10-23T14:44:26.936Z,15.70
2023-10-23T14:46:54.340Z,15.30
2023-10-23T14:49:22.932Z,15.10
2023-10-23T14:51:52.390Z,15.80
2023-10-23T14:54:19.776Z,15.60
2023-10-23T14:56:48.167Z,15.90
2023-10-23T14:59:16.518Z,16.00
2023-10-23T15:01:43.987Z,16.20
2023-10-23T15:04:11.391Z,15.20
2023-10-23T15:06:38.729Z,14.50
2023-10-23T15:09:06.806Z,14.60
2023-10-23T15:11:34.288Z,15.10
2023-10-23T15:14:01.688Z,15.10
2023-10-23T15:16:30.849Z,15.60
2023-10-23T15:18:59.180Z,15.80
2023-10-23T15:21:26.545Z,15.60
2023-10-23T15:23:54.177Z,14.70
2023-10-23T15:26:21.401Z,14.70
2023-10-23T15:28:50.290Z,13.90
2023-10-23T15:31:17.623Z,14.10
2023-10-23T15:33:44.990Z,14.00
2023-10-23T15:36:13.612Z,13.70
2023-10-23T15:38:40.923Z,13.40
2023-10-23T15:41:09.804Z,14.30
2023-10-23T15:43:38.460Z,14.60
2023-10-23T15:46:06.421Z,13.50
2023-10-23T15:48:33.705Z,14.40
2023-10-23T15:51:00.917Z,14.90
2023-10-23T15:53:28.550Z,14.30
2023-10-23T15:55:56.644Z,14.30
2023-10-23T15:58:24.803Z,14.60
2023-10-23T16:00:53.237Z,14.30
2023-10-23T16:03:21.596Z,14.00
2023-10-23T16:05:49.217Z,13.70
2023-10-23T16:08:17.330Z,14.20
2023-10-23T16:10:46.008Z,14.30
2023-10-23T16:13:14.128Z,13.00
2023-10-23T16:15:42.911Z,13.70
2023-10-23T16:18:13.991Z,13.60
2023-10-23T16:20:43.279Z,12.80
2023-10-23T16:23:11.819Z,13.70
2023-10-23T16:25:42.758Z,13.30
2023-10-23T16:28:13.860Z,13.40
2023-10-23T16:30:41.431Z,13.60
2023-10-23T16:33:10.109Z,14.00
2023-10-23T16:35:38.018Z,13.40
2023-10-23T16:38:06.997Z,13.30
2023-10-23T16:40:35.591Z,13.90
2023-10-23T16:43:03.988Z,13.70
2023-10-23T16:45:32.927Z,13.40
2023-10-23T16:48:01.092Z,13.80
2023-10-23T16:50:29.086Z,13.50
2023-10-23T16:52:59.929Z,13.20
2023-10-23T16:55:27.373Z,13.80
2023-10-23T16:57:54.743Z,13.70
2023-10-23T17:00:22.224Z,13.40
2023-10-23T17:02:50.254Z,13.70
2023-10-23T17:05:17.773Z,13.60
2023-10-23T17:07:45.129Z,13.90
2023-10-23T17:10:12.526Z,14.00
2023-10-23T17:12:39.780Z,13.20
2023-10-23T17:15:07.419Z,13.20
2023-10-23T17:17:35.557Z,13.70
2023-10-23T17:20:02.914Z,13.50
2023-10-23T17:22:30.218Z,13.20
2023-10-23T17:24:57.543Z,13.60
2023-10-23T17:27:24.856Z,13.20
2023-10-23T17:29:52.857Z,13.30
2023-10-23T17:32:20.169Z,13.90
2023-10-23T17:34:47.885Z,12.90
2023-10-23T17:37:15.166Z,13.50
2023-10-23T17:39:42.680Z,13.90
2023-10-23T17:42:09.986Z,14.10
2023-10-23T17:44:37.290Z,14.20
2023-10-23T17:47:04.711Z,13.40
2023-10-23T17:49:32.248Z,13.60
2023-10-23T17:51:59.631Z,13.50
2023-10-23T17:54:26.907Z,13.50
2023-10-23T17:56:54.119Z,13.60
2023-10-23T17:59:21.342Z,13.70
2023-10-23T18:01:48.708Z,13.60
2023-10-23T18:04:16.117Z,12.90
2023-10-23T18:06:43.989Z,13.50
2023-10-23T18:09:11.215Z,12.70
2023-10-23T18:11:41.734Z,13.00
2023-10-23T18:14:09.971Z,13.70
2023-10-23T18:16:37.253Z,12.60
2023-10-23T18:19:04.830Z,13.20
2023-10-23T18:21:32.204Z,13.00
2023-10-23T18:23:59.429Z,12.80
2023-10-23T18:26:26.629Z,13.50
2023-10-23T18:28:53.941Z,13.90
2023-10-23T18:31:21.885Z,13.30
2023-10-23T18:33:49.206Z,13.60
2023-10-23T18:36:19.870Z,13.80
2023-10-23T18:38:47.654Z,14.30
2023-10-23T18:41:18.973Z,14.10
2023-10-23T18:43:46.609Z,14.30
2023-10-23T18:46:14.823Z,14.20
2023-10-23T18:48:42.602Z,13.80
2023-10-23T18:51:13.010Z,13.60
2023-10-23T18:53:41.589Z,13.60
2023-10-23T18:56:08.920Z,13.10
2023-10-23T18:58:36.785Z,12.80
2023-10-23T19:01:06.697Z,12.60
2023-10-23T19:03:34.245Z,13.10
2023-10-23T19:06:01.503Z,13.00
2023-10-23T19:08:29.062Z,13.20
2023-10-23T19:10:56.517Z,13.40
2023-10-23T19:13:23.942Z,13.50
2023-10-23T19:16:01.091Z,13.40
2023-10-23T19:18:30.457Z,13.00
2023-10-23T19:21:14.789Z,13.10
2023-10-23T19:23:43.272Z,12.60
2023-10-23T19:26:11.622Z,13.00
2023-10-23T19:28:39.265Z,12.50
2023-10-23T19:31:14.905Z,12.00
2023-10-23T19:33:46.437Z,12.10
2023-10-23T19:36:15.098Z,11.90
2023-10-23T19:38:42.992Z,11.90
2023-10-23T19:41:13.964Z,11.70
2023-10-23T19:43:49.408Z,11.60
2023-10-23T19:46:18.166Z,11.70
2023-10-23T19:48:46.277Z,12.10
2023-10-23T19:51:20.757Z,11.50
2023-10-23T19:53:52.010Z,11.80
2023-10-23T19:56:29.156Z,12.90
2023-10-23T19:58:59.552Z,13.10
2023-10-23T20:01:27.010Z,13.00
2023-10-23T20:03:54.412Z,12.70
2023-10-23T20:06:21.684Z,13.10
2023-10-23T20:08:48.922Z,13.10
2023-10-23T20:11:16.176Z,13.50
2023-10-23T20:13:43.553Z,13.40
2023-10-23T20:16:10.934Z,13.50
2023-10-23T20:18:39.941Z,13.90
2023-10-23T20:21:07.233Z,14.10
2023-10-23T20:23:34.707Z,14.60
2023-10-23T20:26:02.797Z,14.50
2023-10-23T20:28:30.138Z,14.90
2023-10-23T20:30:57.510Z,14.90
2023-10-23T20:33:24.799Z,14.80
2023-10-23T20:35:52.041Z,14.80
2023-10-23T20:38:19.281Z,14.40
2023-10-23T20:40:46.502Z,14.60
2023-10-23T20:43:13.824Z,14.70
2023-10-23T20:45:41.083Z,14.60
2023-10-23T20:48:08.428Z,14.00
2023-10-23T20:50:35.910Z,14.60
2023-10-23T20:53:03.366Z,14.60
2023-10-23T20:55:30.781Z,14.60
2023-10-23T20:57:58.058Z,14.60
2023-10-23T21:00:25.283Z,14.20
2023-10-23T21:02:52.716Z,14.50
2023-10-23T21:05:20.076Z,14.30
2023-10-23T21:07:47.313Z,14.40
2023-10-23T21:10:14.691Z,14.30
2023-10-23T21:12:41.954Z,14.80
2023-10-23T21:15:09.599Z,14.90
2023-10-23T21:17:37.749Z,14.70
2023-10-23T21:20:05.833Z,15.00
2023-10-23T21:22:33.095Z,14.80
2023-10-23T21:25:00.348Z,15.00
2023-10-23T21:27:27.596Z,14.60
2023-10-23T21:29:54.806Z,14.60
2023-10-23T21:32:22.063Z,14.40
2023-10-23T21:34:49.337Z,14.60
2023-10-23T21:37:16.724Z,14.40
2023-10-23T21:39:43.983Z,14.80
2023-10-23T21:42:11.176Z,15.10
2023-10-23T21:44:38.652Z,15.40
2023-10-23T21:47:06.361Z,15.20
2023-10-23T21:49:37.382Z,15.20
2023-10-23T21:52:05.749Z,15.30
2023-10-23T21:54:33.398Z,15.30
2023-10-23T21:57:22.477Z,15.30
2023-10-23T21:59:49.187Z,15.30
2023-10-23T22:02:16.746Z,14.90
2023-10-23T22:04:44.224Z,15.00
2023-10-23T22:07:11.731Z,14.80
2023-10-23T22:09:39.205Z,15.30
2023-10-23T22:12:06.942Z,15.70
2023-10-23T22:14:34.358Z,15.70
2023-10-23T22:17:01.694Z,15.60
2023-10-23T22:19:31.556Z,15.80
2023-10-23T22:21:59.113Z,15.90
2023-10-23T22:24:26.363Z,16.00
2023-10-23T22:26:53.583Z,15.70
2023-10-23T22:29:20.801Z,14.70
2023-10-23T22:31:48.145Z,15.20
2023-10-23T22:34:15.435Z,14.50
2023-10-23T22:36:42.670Z,15.00
2023-10-23T22:39:10.542Z,14.70
2023-10-23T22:41:40.690Z,14.70
2023-10-23T22:44:08.612Z,14.60
2023-10-23T22:46:35.920Z,13.80
2023-10-23T22:49:03.255Z,13.00
2023-10-23T22:51:30.673Z,13.50
2023-10-23T22:53:58.170Z,12.80
2023-10-23T22:56:26.651Z,13.50
2023-10-23T22:58:54.073Z,13.50
2023-10-23T23:01:22.052Z,13.50
2023-10-23T23:03:49.722Z,13.30
2023-10-23T23:06:18.862Z,13.50
2023-10-23T23:08:47.345Z,13.80
2023-10-23T23:11:14.809Z,13.20
2023-10-23T23:13:42.260Z,12.70
2023-10-23T23:16:09.665Z,13.20
2023-10-23T23:18:39.441Z,13.40
2023-10-23T23:21:08.720Z,13.20
2023-10-23T23:23:36.058Z,13.00
2023-10-23T23:26:03.298Z,13.40
2023-10-23T23:28:30.622Z,13.00
2023-10-23T23:30:58.748Z,13.00
2023-10-23T23:33:26.594Z,12.90
2023-10-23T23:35:56.530Z,12.80
2023-10-23T23:38:24.086Z,13.10
2023-10-23T23:40:52.203Z,13.40
2023-10-23T23:43:19.487Z,13.60
2023-10-23T23:45:46.798Z,13.10
2023-10-23T23:48:15.489Z,13.70
2023-10-23T23:50:42.885Z,13.60
2023-10-23T23:53:10.094Z,13.90
2023-10-23T23:55:37.358Z,14.20
2023-10-23T23:58:04.590Z,14.40
